Terminal Aerodrome Forecast
Issued by NWS Wilmington, OH

Current Version | Previous Version | Graphics & Text | Print | Product List | Glossary On
Versions: 1 2 3 4 5 6 7 8 9 10 11 12 13 14 15 16 17 18 19 20 21 22 23 24
977
FTUS41 KILN 231458 AAA
TAFCVG
TAF AMD
KCVG 231458Z 2315/2418 11009KT P6SM SCT100
     FM232100 14009KT P6SM BKN080
     FM240500 18008KT P6SM BKN070 WS020/21045KT
     FM241100 20012KT P6SM BKN018 WS020/21045KT
     FM241400 20012KT P6SM BKN024=

USA.gov is the U.S. government's official web portal to all federal, state and local government web resources and services.